Flight Track Log - Related Links

Times and Time Zones

All times are in EDT time to prevent confusion due to time zone crossing. See the FLG3707 flight status page for this flight to view local times or setup timezone preferences in your user account.

Time Position Orientation Groundspeed Altitude Reporting Facility
EDT Latitude Longitude Course Direction KTS MPH feet Rate Location/Type
Mon 02:00:54 PM 38.8667 -77.0333 311° West 147 169 1,000  Level Potomac TRACON
Mon 02:01:48 PM 38.9000 -77.0833 311° West 178 205 2,800 2,167 Climbing Potomac TRACON
Mon 02:02:42 PM 38.9333 -77.1167 322° Northwest 218 251 4,900 2,600 Climbing Potomac TRACON
Mon 02:03:48 PM 38.9833 -77.1833 314° West 253 291 8,000 2,693 Climbing Potomac TRACON
Mon 02:04:49 PM 38.9833 -77.3000 270° West 297 342 10,600 1,719 Climbing Potomac TRACON
Mon 02:06:39 PM 38.9458 -77.5214 258° West 369 425 12,900 2,047 Climbing Washington Center
Mon 02:07:39 PM 38.9267 -77.6703 261° West 401 461 16,400 2,033 Climbing Washington Center
Mon 02:08:40 PM 38.8831 -77.7756 242° Southwest 364 419 17,000 295 Climbing Washington Center
Mon 02:09:41 PM 38.8744 -77.9008 265° West 355 409 17,000 101 Level Washington Center
Mon 02:10:39 PM 38.8681 -78.0233 266° West 355 409 17,200 1,119 Climbing Washington Center
Mon 02:11:39 PM 38.8569 -78.1481 264° West 350 403 19,200 1,850 Climbing Washington Center
Mon 02:12:39 PM 38.8525 -78.2600 267° West 350 403 20,900 1,884 Climbing Washington Center
Mon 02:13:40 PM 38.8517 -78.3878 270° West 350 403 23,000 1,884 Climbing Washington Center
Mon 02:14:40 PM 38.8508 -78.5183 270° West 361 415 24,700 1,636 Climbing Washington Center
Mon 02:15:41 PM 38.8472 -78.6542 268° West 372 428 26,300 1,271 Climbing Washington Center
Mon 02:16:38 PM 38.8478 -78.7928 270° West 382 440 27,200 1,119 Climbing Washington Center
Mon 02:17:39 PM 38.8442 -78.9339 268° West 387 445 28,500 1,131 Climbing Washington Center
Mon 02:18:40 PM 38.8422 -79.0753 269° West 392 451 29,500 992 Climbing Washington Center
Mon 02:19:40 PM 38.8400 -79.2192 269° West 404 465 30,500 1,017 Climbing Washington Center
Mon 02:20:38 PM 38.8397 -79.3656 270° West 409 471 31,500 756 Climbing Washington Center
Mon 02:21:39 PM 38.8369 -79.5147 269° West 415 478 32,000 836 Climbing Washington Center
Mon 02:22:40 PM 38.8353 -79.6878 269° West 440 506 33,200 992 Climbing Washington Center
Mon 02:23:40 PM 38.8300 -79.8394 267° West 440 506 34,000 397 Climbing Washington Center
Mon 02:24:41 PM 38.8244 -79.9911 267° West 435 501 34,000  Level Washington Center
Mon 02:25:41 PM 38.8214 -80.1294 268° West 435 501 34,000  Level Washington Center
Mon 02:26:52 PM 38.8150 -80.3206 268° West 426 490 34,000  Level Indianapolis Center
Mon 02:27:54 PM 38.8106 -80.4744 268° West 427 491 34,000  Level Indianapolis Center
Mon 02:28:56 PM 38.7919 -80.6272 261° West 432 497 34,000  Level Indianapolis Center
Mon 02:29:58 PM 38.7708 -80.7806 260° West 433 498 34,000  Level Indianapolis Center
Mon 02:31:01 PM 38.7497 -80.9342 260° West 435 501 34,000 -288 Level Indianapolis Center
Mon 02:32:03 PM 38.7275 -81.0864 259° West 435 501 33,400 -1,161 Descending Indianapolis Center
Mon 02:33:05 PM 38.7014 -81.2683 260° West 435 501 31,600 -1,403 Descending Indianapolis Center
Mon 02:34:07 PM 38.6839 -81.3886 259° West 431 496 30,500 -774 Descending Indianapolis Center
Mon 02:35:09 PM 38.6547 -81.5842 259° West 436 502 30,000 -242 Descending Indianapolis Center
Mon 02:36:11 PM 38.6325 -81.7439 260° West 442 509 30,000  Level Indianapolis Center
Mon 02:37:13 PM 38.6103 -81.8961 259° West 439 505 30,000 -677 Level Indianapolis Center
Mon 02:38:15 PM 38.5881 -82.0481 259° West 436 502 28,600 -1,403 Descending Indianapolis Center
Mon 02:39:17 PM 38.5650 -82.2000 259° West 437 503 27,100 -1,452 Descending Indianapolis Center
Mon 02:40:19 PM 38.5422 -82.3481 259° West 431 496 25,600 -1,548 Descending Indianapolis Center
Mon 02:41:21 PM 38.5172 -82.5172 259° West 430 495 23,900 -1,548 Descending Indianapolis Center
Mon 02:42:23 PM 38.4931 -82.6636 258° West 428 493 22,400 -1,440 Descending Indianapolis Center
Mon 02:43:26 PM 38.4708 -82.8094 259° West 422 486 20,900 -1,152 Descending Indianapolis Center
Mon 02:44:28 PM 38.4492 -82.9494 259° West 410 472 20,000 -435 Descending Indianapolis Center
Mon 02:45:30 PM 38.4228 -83.1131 258° West 408 470 20,000 -629 Level Indianapolis Center
Mon 02:46:32 PM 38.4417 -83.2522 280° West 400 460 18,700 -1,500 Descending Indianapolis Center
Mon 02:47:34 PM 38.4753 -83.3825 288° West 392 451 16,900 -1,839 Descending Indianapolis Center
Mon 02:48:36 PM 38.5086 -83.5111 288° West 388 447 14,900 -1,935 Descending Indianapolis Center
Mon 02:49:38 PM 38.5414 -83.6419 288° West 388 447 12,900 -1,935 Descending Indianapolis Center
Mon 02:50:40 PM 38.5792 -83.7903 288° West 383 441 10,900 -1,403 Descending Indianapolis Center
Mon 02:51:42 PM 38.6106 -83.9119 288° West 369 425 10,000 -435 Descending Indianapolis Center
Mon 02:52:44 PM 38.6639 -84.0211 302° West 372 428 10,000  Level Indianapolis Center
Mon 02:53:46 PM 38.7231 -84.1333 304° West 373 429 10,000  Level Indianapolis Center
Mon 02:54:48 PM 38.7811 -84.2464 303° West 375 432 10,000  Level Indianapolis Center
Mon 02:55:51 PM 38.8389 -84.3569 304° West 375 432 10,000  Level Indianapolis Center
Mon 02:56:53 PM 38.9067 -84.4917 303° West 375 432 10,000 -290 Level Indianapolis Center
Mon 02:57:55 PM 38.9758 -84.5403 331° Northwest 299 344 9,400 -823 Descending Indianapolis Center
Mon 02:58:57 PM 39.0464 -84.5411 359° North 264 304 8,300 -1,306 Descending Indianapolis Center
Mon 02:59:59 PM 39.1200 -84.5419 359° North 261 300 6,700 -1,548 Descending Indianapolis Center
Mon 03:01:01 PM 39.1906 -84.5411 North 258 297 5,100 -1,548 Descending Indianapolis Center
Mon 03:02:03 PM 39.2178 -84.6164 295° West 255 293 3,500 -1,037 Descending Indianapolis Center
Mon 03:03:43 PM 39.1333 -84.6500 197° South 175 201 2,300 -675 Descending Cincinnati TRACON
Mon 03:04:43 PM 39.0833 -84.6500 180° South 131 151 1,700 -600 Descending Cincinnati TRACON
Mon 03:06:00 PM 39.0488 -84.6678 195° South  Level Estimated
Mon 03:13:00 PM 39.0488 -84.6678 195° South  Level Estimated

Login

Don't have an account? Register now (free) for customized features, flight alerts, and more!